Cherry Hills, Colorado
Current Conditions -  °F | °C
As of 4:53 AM on Thursday 27 Nov 2014 (Local Time) from KAPA Reporting Station
Broken Clouds Broken Clouds  
Wind Chill: 41°   Ceiling: 22000
Heat Index: 44°   Visibility: 10mi
Dew Point: 18°   Wind: 6mph
Humidity: 35%   Direction: 180°S
Pressure: 30.23"   Gusts: NA
Location:  39.6106°N, 104.954°W
Report Text: KAPA 271153Z 18005KT 10SM FEW130 BKN220 07/M08 A3023 RMK AO2 SLP238 T00671078 10072 21022 58007
Loading
Personal Weather Stations






























Interactive Weather Map New forecast layout! Learn more

10-Day Weather Forecast

Advertisements
Track Severe Weather on mobile